Time;durP1;ratioP1;P1;durP2;ratioP2;P2;SDS_P1;SDS_P2;PMS_P1;PMS_P2;Temp;Humidity;BMP_temperature;BMP_pressure;BME280_temperature;BME280_humidity;BME280_pressure;Samples;Min_cycle;Max_cycle;Signal;HPM_P1;HPM_P2
2023/03/06 00:00:44;;;;;;;12.47;11.13;;;;;;;5.32;44.74;94311.09;4983337;28;20241;-67
2023/03/06 00:03:09;;;;;;;12.30;9.90;;;;;;;5.31;44.82;94312.88;4981612;28;20263;-67
2023/03/06 00:05:35;;;;;;;15.13;10.83;;;;;;;5.19;45.05;94316.59;4988538;28;20261;-69
2023/03/06 00:08:00;;;;;;;12.97;10.83;;;;;;;5.14;45.08;94316.16;4985826;28;20231;-69
2023/03/06 00:10:28;;;;;;;15.60;11.10;;;;;;;5.28;44.92;94315.75;4984450;28;20250;-68
2023/03/06 00:12:55;;;;;;;12.73;10.97;;;;;;;5.24;44.97;94313.56;4989030;28;20188;-70
2023/03/06 00:15:22;;;;;;;14.97;11.87;;;;;;;5.27;45.27;94314.13;4985870;28;20239;-68
2023/03/06 00:17:47;;;;;;;14.53;11.07;;;;;;;5.28;45.18;94309.72;4987842;28;20217;-69
2023/03/06 00:20:14;;;;;;;12.53;11.23;;;;;;;5.20;44.86;94313.00;4985056;28;20227;-70
2023/03/06 00:22:39;;;;;;;13.17;10.50;;;;;;;5.12;45.75;94314.66;4986632;28;20298;-68
2023/03/06 00:25:06;;;;;;;15.00;11.53;;;;;;;4.98;45.68;94305.44;4987575;28;20290;-68
2023/03/06 00:27:32;;;;;;;13.83;11.43;;;;;;;5.21;45.51;94314.66;4991104;28;20203;-69
2023/03/06 00:29:59;;;;;;;15.10;11.60;;;;;;;5.08;45.79;94312.31;4991644;28;20230;-69
2023/03/06 00:32:26;;;;;;;13.77;11.83;;;;;;;5.05;45.73;94312.59;4987752;28;20715;-69
2023/03/06 00:34:53;;;;;;;12.73;11.33;;;;;;;5.12;45.77;94307.66;4987163;28;20220;-69
2023/03/06 00:37:20;;;;;;;16.13;11.30;;;;;;;5.13;45.74;94316.28;4987742;28;20191;-69
2023/03/06 00:39:45;;;;;;;13.53;11.53;;;;;;;5.07;45.84;94308.03;4992866;28;20195;-69
2023/03/06 00:42:11;;;;;;;14.13;11.10;;;;;;;5.07;45.89;94307.22;4988291;28;20289;-69
2023/03/06 00:44:37;;;;;;;13.33;11.37;;;;;;;4.98;46.10;94302.84;4989451;28;20235;-69
2023/03/06 00:47:03;;;;;;;16.07;11.20;;;;;;;5.17;44.81;94304.66;4988506;28;20219;-66
2023/03/06 00:49:28;;;;;;;16.03;11.57;;;;;;;4.90;46.17;94298.31;4984642;28;20223;-69
2023/03/06 00:51:54;;;;;;;13.03;11.03;;;;;;;4.89;45.93;94306.25;4994317;28;20197;-69
2023/03/06 00:54:19;;;;;;;13.67;11.70;;;;;;;4.94;45.82;94306.66;4989316;28;20219;-70
2023/03/06 00:56:44;;;;;;;13.70;10.63;;;;;;;4.96;45.52;94302.16;4989490;28;20216;-68
2023/03/06 00:59:10;;;;;;;14.07;10.97;;;;;;;4.78;45.78;94296.75;4992256;28;20220;-68
2023/03/06 01:01:36;;;;;;;12.53;10.80;;;;;;;4.97;45.83;94295.97;4988722;28;20223;-68
2023/03/06 01:04:01;;;;;;;13.43;11.83;;;;;;;4.84;45.56;94297.06;4994143;28;20215;-68
2023/03/06 01:06:27;;;;;;;12.67;10.90;;;;;;;5.35;43.86;94296.97;4992375;28;20294;-67
2023/03/06 01:08:52;;;;;;;12.30;10.90;;;;;;;5.06;44.54;94298.59;4993611;28;20223;-67
2023/03/06 01:11:17;;;;;;;14.03;11.20;;;;;;;4.99;44.87;94291.44;4989381;28;20219;-68
2023/03/06 01:13:43;;;;;;;13.27;11.47;;;;;;;5.07;44.52;94289.00;4991669;28;20218;-68
2023/03/06 01:16:11;;;;;;;15.80;11.47;;;;;;;5.12;44.50;94294.63;4993039;28;20211;-68
2023/03/06 01:18:37;;;;;;;12.67;10.27;;;;;;;5.14;44.40;94292.72;4991760;28;20201;-68
2023/03/06 01:21:03;;;;;;;12.13;10.83;;;;;;;5.06;44.02;94290.78;4988724;28;20239;-67
2023/03/06 01:23:29;;;;;;;12.30;10.47;;;;;;;5.16;44.34;94301.22;4990139;28;20230;-68
2023/03/06 01:25:54;;;;;;;16.13;11.30;;;;;;;5.06;44.52;94295.19;4991320;28;20627;-68
2023/03/06 01:28:20;;;;;;;12.07;10.70;;;;;;;4.99;44.73;94294.88;4993210;28;20246;-68
2023/03/06 01:30:45;;;;;;;12.00;10.80;;;;;;;4.95;44.66;94290.91;4996529;28;20214;-68
2023/03/06 01:33:10;;;;;;;11.27;10.13;;;;;;;5.03;44.50;94292.84;4990373;28;20220;-68
2023/03/06 01:35:39;;;;;;;12.87;10.60;;;;;;;5.06;44.29;94290.78;4991277;28;20241;-68
2023/03/06 01:38:04;;;;;;;12.30;10.70;;;;;;;5.19;43.96;94290.53;4992846;28;20269;-68
2023/03/06 01:40:31;;;;;;;14.30;11.53;;;;;;;5.23;43.95;94281.44;4993063;28;20238;-68
2023/03/06 01:42:57;;;;;;;12.97;10.23;;;;;;;5.09;44.39;94287.06;4994054;28;20199;-68
2023/03/06 01:45:22;;;;;;;15.30;11.13;;;;;;;4.95;44.56;94292.69;4986087;28;20227;-67
2023/03/06 01:47:48;;;;;;;13.53;10.53;;;;;;;5.03;44.37;94291.06;4991814;28;20654;-67
2023/03/06 01:50:13;;;;;;;14.00;11.27;;;;;;;5.07;44.41;94289.81;4992854;28;20226;-68
2023/03/06 01:52:45;;;;;;;15.40;11.57;;;;;;;4.98;44.71;94280.22;4989311;28;20598;-67
2023/03/06 01:55:18;;;;;;;14.23;11.03;;;;;;;5.01;44.50;94285.16;4986941;28;20191;-69
2023/03/06 01:57:51;;;;;;;11.93;10.60;;;;;;;4.99;44.73;94286.25;4991931;28;20218;-69
2023/03/06 02:00:21;;;;;;;13.90;11.00;;;;;;;5.06;44.57;94287.34;4988333;28;20219;-70
2023/03/06 02:02:52;;;;;;;12.13;10.83;;;;;;;5.12;44.91;94291.19;4991608;28;20255;-69
2023/03/06 02:05:18;;;;;;;11.73;10.40;;;;;;;5.01;44.58;94287.75;4985872;28;20274;-68
2023/03/06 02:07:45;;;;;;;12.97;10.73;;;;;;;4.82;45.20;94283.34;4985213;28;20291;-69
2023/03/06 02:10:11;;;;;;;13.73;11.20;;;;;;;5.01;45.10;94285.16;4982518;28;20196;-69
2023/03/06 02:12:42;;;;;;;13.03;10.90;;;;;;;5.00;44.39;94280.91;4992961;28;20274;-66
2023/03/06 02:15:09;;;;;;;13.07;10.20;;;;;;;5.01;44.34;94285.16;4989992;28;20231;-66
2023/03/06 02:17:35;;;;;;;12.00;10.13;;;;;;;4.93;45.21;94282.41;4987008;28;20234;-64
2023/03/06 02:20:15;;;;;;;14.43;11.47;;;;;;;4.89;45.01;94288.81;4990936;28;20724;-65
2023/03/06 02:23:02;;;;;;;12.03;10.77;;;;;;;5.03;44.67;94285.84;4988018;28;20301;-65
2023/03/06 02:25:30;;;;;;;13.67;11.40;;;;;;;4.92;45.08;94282.53;4990186;28;20228;-65
2023/03/06 02:27:55;;;;;;;12.60;11.30;;;;;;;4.63;46.04;94288.53;4988382;28;20191;-65
2023/03/06 02:30:22;;;;;;;14.07;11.53;;;;;;;4.63;45.85;94298.94;4991645;28;20236;-64
2023/03/06 02:32:47;;;;;;;12.37;11.10;;;;;;;4.50;46.47;94295.75;4995147;28;20226;-64
2023/03/06 02:35:26;;;;;;;14.87;11.90;;;;;;;4.63;46.50;94291.13;4992234;28;20541;-64
2023/03/06 02:37:52;;;;;;;16.20;12.10;;;;;;;4.70;46.61;94292.22;4990211;28;20230;-65
2023/03/06 02:40:20;;;;;;;15.83;11.43;;;;;;;4.68;46.72;94304.56;4988201;28;20222;-64
2023/03/06 02:42:48;;;;;;;12.87;11.20;;;;;;;4.77;46.71;94302.94;4995748;28;20187;-65
2023/03/06 02:45:20;;;;;;;12.73;11.40;;;;;;;4.75;47.26;94304.84;4989557;28;20227;-64
2023/03/06 02:47:46;;;;;;;13.30;11.40;;;;;;;4.82;46.92;94300.75;4978080;28;20503;-65
2023/03/06 02:50:11;;;;;;;14.13;11.43;;;;;;;4.79;47.10;94299.25;4979764;28;20261;-65
2023/03/06 02:52:37;;;;;;;13.10;11.53;;;;;;;4.81;47.34;94299.94;4965949;28;20247;-65
2023/03/06 02:55:03;;;;;;;14.17;11.27;;;;;;;4.73;47.25;94297.19;4962706;28;20199;-65
2023/03/06 02:57:28;;;;;;;13.17;11.40;;;;;;;4.73;47.25;94294.59;4957501;28;20274;-65
2023/03/06 02:59:54;;;;;;;12.93;11.63;;;;;;;4.71;47.37;94303.50;4961043;28;20227;-65
2023/03/06 03:02:19;;;;;;;13.27;11.13;;;;;;;4.76;47.49;94304.72;4962956;28;20220;-64
2023/03/06 03:04:44;;;;;;;13.80;12.37;;;;;;;4.79;47.09;94295.81;4964833;28;20235;-65
2023/03/06 03:07:10;;;;;;;13.37;10.83;;;;;;;4.88;47.12;94299.41;4969612;28;20228;-65
2023/03/06 03:09:36;;;;;;;13.30;11.90;;;;;;;4.76;47.54;94303.91;4963694;28;20196;-65
2023/03/06 03:12:03;;;;;;;13.43;12.00;;;;;;;4.82;47.34;94301.59;4969164;28;20224;-65
2023/03/06 03:14:29;;;;;;;12.40;10.83;;;;;;;4.91;47.19;94306.94;4962435;28;20299;-65
2023/03/06 03:16:54;;;;;;;14.43;11.67;;;;;;;4.90;47.23;94305.31;4956790;28;20265;-65
2023/03/06 03:19:20;;;;;;;13.90;11.70;;;;;;;4.84;47.39;94311.88;4966436;28;20224;-65
2023/03/06 03:21:45;;;;;;;14.83;12.03;;;;;;;4.56;48.26;94310.84;4963945;28;20192;-64
2023/03/06 03:24:11;;;;;;;15.07;12.97;;;;;;;4.35;48.80;94316.91;4962421;28;20216;-65
2023/03/06 03:26:36;;;;;;;13.60;12.20;;;;;;;4.51;48.44;94320.81;4961138;28;20286;-65
2023/03/06 03:29:03;;;;;;;14.80;13.30;;;;;;;4.38;49.31;94321.88;4962280;28;20232;-65
2023/03/06 03:31:30;;;;;;;15.67;13.77;;;;;;;4.47;48.50;94319.44;4960939;28;20311;-65
2023/03/06 03:33:55;;;;;;;14.83;13.23;;;;;;;4.51;48.56;94315.63;4966229;28;20330;-65
2023/03/06 03:36:21;;;;;;;16.77;13.37;;;;;;;4.29;49.31;94319.25;4961021;28;20230;-66
2023/03/06 03:38:47;;;;;;;17.30;14.40;;;;;;;4.26;49.49;94328.13;4965323;28;20220;-65
2023/03/06 03:41:12;;;;;;;14.83;13.33;;;;;;;4.40;49.06;94329.56;4962408;28;20220;-65
2023/03/06 03:43:38;;;;;;;15.87;13.40;;;;;;;4.38;48.98;94327.09;4969434;28;20250;-65
2023/03/06 03:46:04;;;;;;;15.20;12.83;;;;;;;4.36;48.99;94333.38;4971301;28;20188;-64
2023/03/06 03:48:30;;;;;;;14.57;13.07;;;;;;;4.37;48.85;94335.84;4972766;28;20196;-65
2023/03/06 03:51:03;;;;;;;16.97;13.40;;;;;;;4.41;48.96;94337.25;4971432;28;20231;-65
2023/03/06 03:53:29;;;;;;;15.10;13.50;;;;;;;4.37;48.88;94335.84;4966172;28;20536;-65
2023/03/06 03:55:54;;;;;;;15.43;13.40;;;;;;;4.33;49.06;94331.88;4963083;28;20220;-65
2023/03/06 03:58:19;;;;;;;16.17;13.73;;;;;;;4.17;49.53;94334.94;4966817;28;20278;-65
2023/03/06 04:00:46;;;;;;;19.50;14.13;;;;;;;4.23;49.67;94344.00;4966375;28;20205;-64
2023/03/06 04:03:11;;;;;;;15.93;14.23;;;;;;;4.15;49.77;94342.06;4965040;28;20227;-66
2023/03/06 04:05:36;;;;;;;17.53;13.97;;;;;;;4.12;49.81;94347.50;4961408;28;20232;-64
2023/03/06 04:08:02;;;;;;;16.40;14.67;;;;;;;3.88;50.31;94347.78;4959094;28;20259;-64
2023/03/06 04:10:27;;;;;;;16.07;14.13;;;;;;;3.98;49.97;94348.69;4960292;28;20220;-64
2023/03/06 04:12:53;;;;;;;16.67;14.07;;;;;;;4.11;49.79;94351.06;4959950;28;20309;-64
2023/03/06 04:15:18;;;;;;;17.93;14.47;;;;;;;4.12;50.29;94354.50;4968202;28;20217;-64
2023/03/06 04:17:44;;;;;;;16.20;14.40;;;;;;;4.09;49.98;94347.78;4967588;28;20287;-63
2023/03/06 04:20:10;;;;;;;16.03;14.33;;;;;;;4.18;49.62;94353.97;4968081;28;20230;-64
2023/03/06 04:22:35;;;;;;;17.67;14.97;;;;;;;4.09;49.67;94352.13;4967921;28;20224;-64
2023/03/06 04:25:00;;;;;;;17.07;14.40;;;;;;;4.10;50.37;94354.63;4967381;28;20225;-64
2023/03/06 04:27:26;;;;;;;16.07;14.47;;;;;;;4.14;49.95;94349.97;4954328;28;20196;-65
2023/03/06 04:29:55;;;;;;;16.53;14.13;;;;;;;4.11;50.12;94350.22;4969399;28;20232;-65
2023/03/06 04:32:20;;;;;;;15.87;14.00;;;;;;;4.08;50.03;94361.72;4964262;28;20230;-65
2023/03/06 04:34:46;;;;;;;15.23;13.70;;;;;;;3.97;50.52;94354.81;4965828;28;20311;-64
2023/03/06 04:37:18;;;;;;;17.57;13.67;;;;;;;4.09;50.44;94365.13;4968461;28;20199;-64
2023/03/06 04:39:44;;;;;;;17.20;14.20;;;;;;;4.17;50.09;94357.50;4968973;28;20228;-64
2023/03/06 04:42:09;;;;;;;18.47;14.83;;;;;;;4.21;49.96;94366.72;4963957;28;20323;-65
2023/03/06 04:44:35;;;;;;;18.50;14.80;;;;;;;4.20;50.20;94363.31;4968184;28;20232;-65
2023/03/06 04:47:00;;;;;;;16.70;14.17;;;;;;;4.16;50.26;94361.91;4967037;28;20334;-65
2023/03/06 04:49:25;;;;;;;17.27;14.60;;;;;;;4.22;50.31;94357.13;4967923;28;20290;-65
2023/03/06 04:51:51;;;;;;;16.87;14.70;;;;;;;4.22;49.95;94365.75;4971156;28;20188;-65
2023/03/06 04:54:16;;;;;;;18.70;15.37;;;;;;;4.15;50.25;94364.66;4965787;28;20236;-65
2023/03/06 04:56:42;;;;;;;18.70;14.80;;;;;;;4.21;50.32;94361.53;4968062;28;20220;-65
2023/03/06 04:59:07;;;;;;;18.93;15.30;;;;;;;4.10;50.57;94361.59;4965011;28;20236;-65
2023/03/06 05:01:32;;;;;;;17.73;14.70;;;;;;;4.14;50.66;94366.44;4966152;28;20212;-65
2023/03/06 05:03:58;;;;;;;15.53;13.87;;;;;;;4.18;50.37;94364.38;4965003;28;20303;-64
2023/03/06 05:06:23;;;;;;;16.47;14.73;;;;;;;4.28;50.15;94367.03;4960365;28;20248;-65
2023/03/06 05:08:49;;;;;;;17.53;15.03;;;;;;;4.26;50.05;94359.34;4966127;28;20227;-64
2023/03/06 05:11:14;;;;;;;17.03;13.97;;;;;;;4.22;50.23;94360.56;4967783;28;20362;-64
2023/03/06 05:13:40;;;;;;;16.83;14.00;;;;;;;4.06;50.60;94363.63;4968287;28;20266;-64
2023/03/06 05:16:06;;;;;;;19.47;14.57;;;;;;;4.20;50.42;94372.91;4966538;28;20207;-64
2023/03/06 05:18:32;;;;;;;18.17;15.40;;;;;;;4.36;49.86;94380.25;4969138;28;20560;-65
2023/03/06 05:21:00;;;;;;;18.37;15.10;;;;;;;4.32;50.35;94382.25;4964323;28;20227;-68
2023/03/06 05:23:27;;;;;;;17.43;15.53;;;;;;;4.36;49.87;94375.84;4967956;28;20640;-67
2023/03/06 05:25:53;;;;;;;17.40;15.40;;;;;;;4.42;49.40;94375.31;4964852;28;20224;-66
2023/03/06 05:28:19;;;;;;;16.97;15.17;;;;;;;4.43;49.59;94379.56;4972689;28;20241;-65
2023/03/06 05:30:45;;;;;;;19.23;15.90;;;;;;;4.49;49.40;94380.00;4967861;28;20279;-64
2023/03/06 05:33:10;;;;;;;17.53;15.63;;;;;;;4.54;49.34;94383.03;4968862;28;20292;-65
2023/03/06 05:35:35;;;;;;;19.50;15.50;;;;;;;4.50;49.33;94373.84;4966709;28;20255;-64
2023/03/06 05:38:01;;;;;;;17.87;15.93;;;;;;;4.55;49.48;94377.72;4968577;28;20322;-68
2023/03/06 05:40:26;;;;;;;22.00;14.23;;;;;;;4.51;48.86;94373.72;4964684;28;20270;-68
2023/03/06 05:42:52;;;;;;;17.67;14.07;;;;;;;4.50;48.94;94379.06;4966577;28;20250;-65
2023/03/06 05:45:17;;;;;;;18.20;14.07;;;;;;;4.50;48.85;94384.28;4954662;28;20246;-68
2023/03/06 05:47:44;;;;;;;18.73;13.53;;;;;;;4.54;48.91;94377.81;4961047;28;20287;-68
2023/03/06 05:50:10;;;;;;;16.13;13.07;;;;;;;4.62;48.68;94370.19;4964448;28;20228;-66
2023/03/06 05:52:38;;;;;;;18.77;12.47;;;;;;;4.53;48.54;94377.00;4967463;28;20216;-67
2023/03/06 05:55:04;;;;;;;15.23;13.50;;;;;;;4.63;48.53;94382.28;4966012;28;20199;-69
2023/03/06 05:57:29;;;;;;;15.93;13.60;;;;;;;4.64;48.11;94389.13;4965761;28;20204;-68
2023/03/06 05:59:55;;;;;;;16.77;13.57;;;;;;;4.80;48.19;94394.66;4966418;28;20224;-69
2023/03/06 06:02:20;;;;;;;17.63;14.30;;;;;;;4.82;48.02;94381.50;4962745;28;20220;-68
2023/03/06 06:04:46;;;;;;;18.27;14.57;;;;;;;4.91;48.07;94398.94;4959989;28;20594;-69
2023/03/06 06:07:13;;;;;;;15.40;13.43;;;;;;;5.04;47.68;94402.13;4962258;28;20228;-68
2023/03/06 06:09:39;;;;;;;21.33;14.53;;;;;;;5.01;47.37;94402.41;4961960;28;20189;-67
2023/03/06 06:12:05;;;;;;;18.47;13.23;;;;;;;4.86;47.64;94407.16;4960901;28;20262;-68
2023/03/06 06:14:33;;;;;;;16.33;14.30;;;;;;;4.86;47.67;94408.94;4965720;28;20205;-68
2023/03/06 06:16:58;;;;;;;15.13;13.53;;;;;;;4.88;47.50;94406.19;4963768;28;20224;-68
2023/03/06 06:19:29;;;;;;;17.27;14.03;;;;;;;4.84;47.58;94411.69;4961838;28;20224;-67
2023/03/06 06:21:55;;;;;;;17.70;14.00;;;;;;;4.56;49.05;94412.38;4960653;28;20303;-67
2023/03/06 06:24:23;;;;;;;16.87;13.80;;;;;;;4.64;48.53;94407.34;4963833;28;20347;-74
2023/03/06 06:26:50;;;;;;;18.97;13.50;;;;;;;4.83;47.99;94420.44;4963592;28;20216;-74
2023/03/06 06:29:15;;;;;;;15.33;12.97;;;;;;;5.09;47.31;94419.97;4964823;28;20227;-74
2023/03/06 06:31:41;;;;;;;15.53;13.17;;;;;;;5.13;46.73;94415.31;4965419;28;20228;-73
2023/03/06 06:34:08;;;;;;;15.80;13.03;;;;;;;5.16;47.14;94420.25;4964646;28;20211;-73
2023/03/06 06:36:34;;;;;;;16.00;12.63;;;;;;;5.17;47.00;94422.75;4966523;28;20184;-75
2023/03/06 06:39:00;;;;;;;17.07;13.57;;;;;;;5.18;46.92;94413.13;4963909;28;20223;-75
2023/03/06 06:41:26;;;;;;;14.20;12.70;;;;;;;5.25;46.62;94420.28;4961902;28;20229;-75
2023/03/06 06:43:52;;;;;;;18.30;14.53;;;;;;;5.28;46.72;94417.41;4961474;28;20315;-75
2023/03/06 06:46:17;;;;;;;18.50;13.93;;;;;;;5.37;46.48;94418.38;4963228;28;20280;-74
2023/03/06 06:48:43;;;;;;;17.80;13.57;;;;;;;5.39;46.45;94426.06;4964400;28;20181;-76
2023/03/06 06:51:08;;;;;;;15.83;13.10;;;;;;;5.46;46.06;94437.63;4962737;28;20219;-75
2023/03/06 06:53:34;;;;;;;18.17;13.20;;;;;;;5.44;46.05;94435.13;4958543;28;20247;-76
2023/03/06 06:55:59;;;;;;;15.47;13.00;;;;;;;5.41;45.79;94430.19;4962479;28;20230;-75
2023/03/06 06:58:25;;;;;;;18.00;12.73;;;;;;;5.53;45.38;94423.91;4961470;28;20325;-71
2023/03/06 07:00:50;;;;;;;19.83;14.23;;;;;;;5.58;45.58;94431.31;4964807;28;20208;-70
2023/03/06 07:03:16;;;;;;;18.83;13.47;;;;;;;5.31;46.53;94438.00;4960144;28;20227;-69
2023/03/06 07:05:41;;;;;;;17.23;13.60;;;;;;;5.65;45.77;94432.44;4963519;28;20224;-69
2023/03/06 07:08:07;;;;;;;16.03;11.60;;;;;;;5.50;45.35;94446.81;4961559;28;20255;-68
2023/03/06 07:10:34;;;;;;;16.20;12.90;;;;;;;5.07;46.45;94432.31;4967374;28;20228;-69
2023/03/06 07:13:00;;;;;;;16.00;12.77;;;;;;;5.25;46.20;94432.50;4966317;28;20220;-67
2023/03/06 07:15:26;;;;;;;14.63;12.43;;;;;;;5.23;46.59;94437.03;4968336;28;20239;-70
2023/03/06 07:17:52;;;;;;;14.93;12.40;;;;;;;5.29;45.88;94426.91;4967435;28;20310;-68
2023/03/06 07:20:18;;;;;;;18.93;13.57;;;;;;;5.35;46.10;94422.94;4959578;28;20297;-68
2023/03/06 07:22:44;;;;;;;20.60;13.60;;;;;;;5.37;46.31;94435.81;4965123;28;20234;-66
2023/03/06 07:25:10;;;;;;;18.93;12.80;;;;;;;5.56;45.73;94427.19;4965586;28;20208;-66
2023/03/06 07:27:35;;;;;;;15.90;12.93;;;;;;;5.38;46.09;94437.47;4960734;28;20212;-68
2023/03/06 07:30:01;;;;;;;16.43;13.60;;;;;;;5.57;45.90;94426.25;4962594;28;20295;-67
2023/03/06 07:32:26;;;;;;;16.30;13.03;;;;;;;5.73;45.87;94424.75;4960685;28;20231;-68
2023/03/06 07:34:52;;;;;;;19.30;13.70;;;;;;;5.78;45.25;94437.38;4961870;28;20332;-69
2023/03/06 07:37:17;;;;;;;16.00;13.17;;;;;;;5.92;44.64;94443.97;4960652;28;20204;-68
2023/03/06 07:39:43;;;;;;;16.30;12.00;;;;;;;5.87;44.38;94433.94;4956692;28;20212;-66
2023/03/06 07:42:11;;;;;;;15.27;13.23;;;;;;;5.93;44.07;94435.16;4959683;28;20225;-68
2023/03/06 07:44:37;;;;;;;15.73;13.40;;;;;;;6.05;44.21;94444.56;4960846;28;20228;-66
2023/03/06 07:47:04;;;;;;;15.73;14.03;;;;;;;6.12;43.67;94436.97;4959707;28;20216;-65
2023/03/06 07:49:30;;;;;;;17.40;13.77;;;;;;;6.12;43.62;94447.41;4965263;28;20294;-67
2023/03/06 07:51:57;;;;;;;16.23;12.90;;;;;;;6.15;43.47;94441.94;4964352;28;20204;-67
2023/03/06 07:54:22;;;;;;;15.23;13.20;;;;;;;6.10;43.28;94436.31;4968559;28;20227;-64
2023/03/06 07:56:51;;;;;;;25.00;13.03;;;;;;;6.26;43.08;94444.41;4966412;28;20224;-66
2023/03/06 07:59:16;;;;;;;16.00;12.53;;;;;;;6.33;42.79;94442.84;4964188;28;20224;-65
2023/03/06 08:01:42;;;;;;;14.77;12.07;;;;;;;6.21;43.23;94443.16;4966578;28;20228;-67
2023/03/06 08:04:07;;;;;;;16.10;12.23;;;;;;;6.34;42.68;94438.47;4964499;28;20212;-67
2023/03/06 08:06:33;;;;;;;16.73;12.60;;;;;;;6.43;42.46;94442.84;4967523;28;20184;-69
2023/03/06 08:08:58;;;;;;;17.07;11.23;;;;;;;6.43;42.40;94439.41;4965214;28;20276;-66
2023/03/06 08:11:26;;;;;;;17.07;12.47;;;;;;;6.60;42.18;94438.69;4976671;28;20224;-66
2023/03/06 08:13:53;;;;;;;18.83;12.93;;;;;;;6.51;42.53;94442.16;4962736;28;20215;-69
2023/03/06 08:16:24;;;;;;;16.13;12.23;;;;;;;6.54;42.16;94440.06;4964490;28;20189;-69
2023/03/06 08:18:50;;;;;;;16.10;11.90;;;;;;;6.65;41.86;94440.88;4962933;28;20199;-66
2023/03/06 08:21:18;;;;;;;18.20;12.53;;;;;;;6.35;42.34;94440.13;4965776;28;20223;-63
2023/03/06 08:23:43;;;;;;;20.73;13.47;;;;;;;6.38;42.56;94445.06;4964614;28;20306;-65
2023/03/06 08:26:12;;;;;;;16.77;12.73;;;;;;;6.45;42.48;94443.53;4960681;28;20236;-65
2023/03/06 08:28:38;;;;;;;17.87;12.40;;;;;;;6.23;43.14;94436.00;4965412;28;20248;-66
2023/03/06 08:31:07;;;;;;;19.63;13.37;;;;;;;6.37;42.64;94435.59;4965818;28;20193;-65
2023/03/06 08:33:33;;;;;;;16.87;12.63;;;;;;;6.52;42.25;94434.19;4965197;28;20411;-66
2023/03/06 08:35:58;;;;;;;16.03;12.87;;;;;;;6.53;42.62;94441.03;4960047;28;20220;-68
2023/03/06 08:38:23;;;;;;;15.13;13.07;;;;;;;6.72;42.20;94432.34;4978499;28;20223;-64
2023/03/06 08:40:49;;;;;;;15.17;12.97;;;;;;;6.80;41.98;94435.06;4984722;28;20231;-64
2023/03/06 08:43:14;;;;;;;17.73;13.07;;;;;;;6.90;41.62;94432.41;4981968;28;20373;-64
2023/03/06 08:45:40;;;;;;;21.40;13.40;;;;;;;7.00;41.61;94435.81;4983814;28;20184;-64
2023/03/06 08:48:05;;;;;;;18.37;13.40;;;;;;;6.87;41.99;94442.31;4983048;28;20212;-64
2023/03/06 08:50:31;;;;;;;16.70;12.67;;;;;;;7.11;41.18;94432.19;4982166;28;21115;-63
2023/03/06 08:52:56;;;;;;;16.33;13.33;;;;;;;7.12;41.47;94427.78;4982483;28;20310;-64
2023/03/06 08:55:23;;;;;;;15.60;13.10;;;;;;;7.10;41.83;94432.31;4985568;28;20254;-66
2023/03/06 08:57:48;;;;;;;15.97;13.17;;;;;;;7.04;41.39;94431.94;4981761;28;20207;-63
2023/03/06 09:00:14;;;;;;;17.43;14.37;;;;;;;7.21;41.78;94426.88;4982243;28;20298;-63
2023/03/06 09:02:40;;;;;;;16.33;13.87;;;;;;;7.24;41.44;94431.81;4981717;28;20262;-67
2023/03/06 09:05:07;;;;;;;17.10;13.43;;;;;;;7.38;41.61;94428.75;4983430;28;20241;-66
2023/03/06 09:07:33;;;;;;;17.87;13.93;;;;;;;7.42;41.28;94421.41;4976845;28;20250;-61
2023/03/06 09:09:58;;;;;;;20.40;14.10;;;;;;;7.40;40.93;94418.09;4984818;28;20931;-63
2023/03/06 09:12:24;;;;;;;16.47;14.13;;;;;;;7.33;41.21;94436.19;4983462;28;20231;-63
2023/03/06 09:14:50;;;;;;;18.33;14.00;;;;;;;7.38;41.18;94431.34;4985352;28;20215;-68
2023/03/06 09:17:15;;;;;;;20.77;15.30;;;;;;;7.61;41.19;94429.13;4984707;28;20219;-64
2023/03/06 09:19:44;;;;;;;18.60;14.50;;;;;;;7.71;41.08;94421.22;4985610;28;20958;-62
2023/03/06 09:22:09;;;;;;;19.67;14.57;;;;;;;7.67;40.68;94423.31;4984352;28;20198;-64
2023/03/06 09:24:35;;;;;;;18.30;13.90;;;;;;;7.74;40.99;94428.78;4980463;28;20227;-62
2023/03/06 09:27:00;;;;;;;21.17;15.43;;;;;;;7.90;40.66;94420.25;4983696;28;20302;-65
2023/03/06 09:29:26;;;;;;;17.80;14.07;;;;;;;8.05;40.25;94428.41;4972651;28;20239;-66
2023/03/06 09:31:53;;;;;;;16.80;14.47;;;;;;;8.05;40.28;94424.00;4969040;28;20220;-67
2023/03/06 09:34:19;;;;;;;16.20;13.90;;;;;;;8.15;40.29;94419.50;4987841;28;20267;-66
2023/03/06 09:36:44;;;;;;;16.37;14.53;;;;;;;8.25;40.15;94413.34;4967078;28;20295;-64
2023/03/06 09:39:10;;;;;;;16.83;13.33;;;;;;;8.28;40.19;94405.16;4978832;28;20235;-64
2023/03/06 09:41:39;;;;;;;17.67;13.80;;;;;;;8.50;40.09;94416.97;4982791;28;20227;-65
2023/03/06 09:44:10;;;;;;;16.77;13.73;;;;;;;8.87;38.96;94421.94;4979524;28;20227;-67
2023/03/06 09:47:13;;;;;;;18.00;14.00;;;;;;;8.68;39.33;94419.56;4985939;28;20312;-65
2023/03/06 09:50:00;;;;;;;17.60;13.97;;;;;;;8.97;38.85;94413.97;4982454;28;20316;-64
2023/03/06 09:52:28;;;;;;;16.10;13.87;;;;;;;8.96;39.27;94413.16;4982690;28;20594;-66
2023/03/06 09:55:03;;;;;;;16.43;13.47;;;;;;;9.14;38.52;94399.97;4982974;28;20204;-65
2023/03/06 09:57:52;;;;;;;21.50;14.63;;;;;;;9.12;38.19;94394.06;4977882;28;20239;-64
2023/03/06 10:00:34;;;;;;;17.43;13.23;;;;;;;9.21;38.22;94400.16;4978176;28;20232;-66
2023/03/06 10:03:14;;;;;;;17.50;13.03;;;;;;;9.29;37.98;94394.91;4975680;28;20228;-63
2023/03/06 10:05:45;;;;;;;16.07;13.77;;;;;;;9.42;37.94;94391.84;4964244;28;20262;-64
2023/03/06 10:08:29;;;;;;;15.47;13.33;;;;;;;9.45;37.69;94388.91;4959473;28;20224;-65
2023/03/06 10:11:02;;;;;;;15.63;13.33;;;;;;;9.19;38.09;94384.56;4960618;28;20232;-67
2023/03/06 10:13:36;;;;;;;18.03;13.63;;;;;;;9.47;38.36;94379.06;4962781;28;20268;-65
2023/03/06 10:16:30;;;;;;;16.17;12.83;;;;;;;9.78;38.14;94381.09;4962689;28;20309;-65
2023/03/06 10:19:02;;;;;;;15.30;13.37;;;;;;;10.26;36.67;94371.56;4964827;28;20220;-64
2023/03/06 10:21:49;;;;;;;14.20;12.37;;;;;;;10.73;35.52;94374.31;4995949;28;20369;-63
2023/03/06 10:24:44;;;;;;;15.63;12.00;;;;;;;10.36;36.26;94377.50;4979574;28;20234;-66
2023/03/06 10:27:17;;;;;;;14.90;12.27;;;;;;;10.59;35.47;94369.78;4983276;28;20227;-66
2023/03/06 10:29:42;;;;;;;14.93;11.70;;;;;;;10.40;36.30;94356.97;4974891;28;20289;-62
2023/03/06 10:32:23;;;;;;;14.03;11.10;;;;;;;10.55;36.29;94358.75;4984040;28;20220;-65
2023/03/06 10:34:50;;;;;;;14.37;11.00;;;;;;;10.78;35.73;94356.25;4983985;28;20321;-68
2023/03/06 10:37:18;;;;;;;15.43;12.73;;;;;;;10.97;35.37;94357.66;4985040;28;20200;-68
2023/03/06 10:39:45;;;;;;;15.67;11.57;;;;;;;11.22;34.74;94360.19;4981635;28;20226;-67
2023/03/06 10:42:11;;;;;;;12.63;10.17;;;;;;;11.27;34.66;94345.50;4983345;28;20233;-68
2023/03/06 10:44:36;;;;;;;11.77;10.53;;;;;;;11.27;34.49;94344.69;4982287;28;20219;-68
2023/03/06 10:47:29;;;;;;;12.63;10.87;;;;;;;11.28;33.98;94343.72;4978741;28;20224;-68
2023/03/06 10:50:00;;;;;;;14.73;11.63;;;;;;;11.29;33.99;94357.69;4992650;28;20305;-67
2023/03/06 10:52:34;;;;;;;12.60;11.00;;;;;;;11.16;34.44;94339.81;4981985;28;20283;-67
2023/03/06 10:55:24;;;;;;;12.70;11.33;;;;;;;11.52;34.14;94341.91;4976666;28;20195;-66
2023/03/06 10:57:50;;;;;;;15.57;10.93;;;;;;;11.06;35.23;94337.38;4983044;28;20200;-66
2023/03/06 11:00:28;;;;;;;13.43;11.17;;;;;;;11.02;35.05;94336.91;4980481;28;20224;-67
2023/03/06 11:03:15;;;;;;;15.50;11.77;;;;;;;11.25;34.94;94320.34;4980253;28;20238;-67
2023/03/06 11:05:57;;;;;;;16.10;11.23;;;;;;;11.46;34.78;94317.91;4981007;28;20508;-68
2023/03/06 11:08:22;;;;;;;13.33;11.40;;;;;;;11.78;34.49;94313.44;4977610;28;20231;-65
2023/03/06 11:11:06;;;;;;;14.27;11.15;;;;;;;12.08;34.17;94305.63;4993486;28;20230;-63
2023/03/06 11:13:37;;;;;;;12.02;10.30;;;;;;;12.34;33.13;94306.06;4977261;28;20306;-66
2023/03/06 11:16:26;;;;;;;14.47;10.23;;;;;;;12.11;33.34;94302.69;4980804;28;20184;-64
2023/03/06 11:19:02;;;;;;;13.93;10.10;;;;;;;11.97;33.59;94306.06;4976834;28;20195;-65
2023/03/06 11:21:33;;;;;;;13.90;9.03;;;;;;;12.49;34.65;94294.72;4983652;28;20219;-66
2023/03/06 11:24:07;;;;;;;10.37;8.33;;;;;;;12.69;32.73;94302.91;4983698;28;20220;-68
2023/03/06 11:27:24;;;;;;;13.97;10.67;;;;;;;12.46;33.32;94288.00;4982754;28;20282;-68